x

Cape Suckling - 35 Nm Se Of Kayak Is, Ak (46082) Wave Buoy

11:50am - Sat 25th Apr 2015 All times are AKDT. -8 hours from GMT.

  • Sig Wave height 3.6ft
  • Peak Period 9s
  • Average Period 8s
  • Wind
    4mph, 7mph gusts
  • Air Temp 43°f
  • Sea Pressure 1010.3mb
  • Cape Suckling - 35 Nm Se Of Kayak Is, Ak
  • Cape Suckling - 35 Nm Se Of Kayak Is, Ak

More Historic Weather Station data

Upgrade to MSW Pro to gain access to the past 30 days of data for over 8000 Wavebouys and Weather Stations around the globe.

Join Pro

Comparision Forecast

View Surf forecast
   
Sat 04/25 11:50am 3.5ft 9s 8s 4 7 mph 1010.3mb 43f
10:50am 4ft 9s 8s 7 9 mph 1010.5mb 43f
9:50am 4ft 8s 8s 7 9 mph 1010.6mb 43f
8:50am 4.5ft 10s 8s 7 9 mph 1010.7mb 42f
7:50am 4.5ft 9s 9s 7
mph
1010.9mb 42f
6:50am 4ft 9s 8s 4
mph
1011.1mb 42f
5:50am 4ft 11s 9s 2 4 mph 1011.4mb 42f
4:50am 4ft 9s 9s 4
mph
1011.6mb 42f
3:50am 3.5ft 9s 8s 4
mph
1011.7mb 42f
2:50am 3.5ft 10s 8s 2 4 mph 1011.9mb 42f
1:50am 3.5ft 9s 8s 2 4 mph 1011.9mb 42f
12:50am 4.5ft 9s 8s 2 4 mph 1011.8mb 42f
Fri 04/24 11:50pm 4ft 9s 8s 4 7 mph 1011.7mb 42f
10:50pm 4ft 8s 8s 7
mph
1011.6mb 42f
9:50pm 4ft 10s 7s 4 7 mph 1011.1mb 42f
8:50pm 4.5ft 9s 8s 7
mph
1010.9mb 43f
7:50pm 5ft 8s 8s 7 9 mph 1010.6mb 43f
6:50pm 4.5ft 8s 7s 7 9 mph 1010.5mb 43f
5:50pm 4.5ft 9s 7s 9
mph
1010.5mb 43f
4:50pm 4.5ft 8s 7s 9 11 mph 1010.5mb 43f
3:50pm 4.5ft 8s 7s 9 11 mph 1010.4mb 43f
2:50pm 5ft 9s 7s 11
mph
1010.5mb 43f
1:50pm 5ft 9s 7s 11
mph
1010.5mb 43f
12:50pm 5.5ft 10s 8s 9 11 mph 1010.5mb 43f
11:50am 4.5ft 10s 7s 9 11 mph 1010.1mb 42f
10:50am 5ft 10s 7s 9 11 mph 1009.9mb 42f
9:50am 5ft 10s 7s 9 11 mph 1009.7mb 43f
8:50am 5.5ft 9s 7s 9 11 mph 1009.4mb 43f
7:50am 5ft 10s 7s 7 9 mph 1009.5mb 42f
6:50am 6ft 9s 7s 11 13 mph 1009.5mb 42f
5:50am 6ft 10s 7s 11 13 mph 1009.6mb 43f
4:50am 7ft 10s 8s 11 13 mph 1009.8mb 43f
3:50am 6.5ft 10s 8s 11 13 mph 1009.9mb 43f
2:50am 5.5ft 10s 7s 9 11 mph 1010.1mb 43f
1:50am 6ft 10s 7s 11 13 mph 1010.3mb 43f
12:50am 6ft 10s 7s 13 16 mph 1010.4mb 43f
Thu 04/23 11:50pm 6.5ft 11s 8s 13
mph
1010.6mb 43f
10:50pm 7ft 11s 8s 13 16 mph 1010.5mb 43f
9:50pm 6.5ft 10s 7s 11 13 mph 1010.4mb 44f
8:50pm 6ft 11s 7s 11 13 mph 1010.2mb 44f
7:50pm 7ft 10s 7s 11 13 mph 1010.2mb 45f
6:50pm 6.5ft 11s 7s 13 16 mph 1010.2mb 45f
5:50pm 7ft 11s 7s 11 13 mph 1010.3mb 45f
4:50pm 6.5ft 11s 7s 13 16 mph 1010.4mb 44f
3:50pm 6.5ft 11s 7s 13 16 mph 1010.5mb 44f
2:50pm 6ft 10s 7s 11 13 mph 1010.9mb 44f
1:50pm 8ft 10s 8s 11 13 mph 1011.3mb 43f
12:50pm 8.5ft 10s 8s 11 13 mph 1011.7mb 43f
11:50am 8ft 11s 8s 9 13 mph 1012.1mb 42f
10:50am 10ft 11s 9s 11 13 mph 1012.2mb 42f
9:50am 8ft 11s 8s 7 9 mph 1012.5mb 42f
8:50am 9.5ft 11s 9s 7 9 mph 1012.8mb 42f
7:50am 9ft 11s 8s 4 7 mph 1013.1mb 43f
6:50am 10ft 11s 9s 9 13 mph 1012.7mb 43f
5:50am 11ft 12s 9s 11 16 mph 1012.7mb 43f
4:50am 9.5ft 11s 8s 11 13 mph 1013.1mb 42f
3:50am 10ft 12s 8s 11 13 mph 1013.5mb 43f
2:50am 12ft 11s 9s 11 16 mph 1013.8mb 43f
1:50am 12.5ft 11s 9s 11 16 mph 1014.3mb 43f
12:50am 11ft 11s 8s 9 11 mph 1014.6mb 44f
Wed 04/22 11:50pm 13ft 11s 9s 9 13 mph 1014.9mb 43f
10:50pm 13ft 12s 9s 9 11 mph 1015.1mb 43f
9:50pm 11.5ft 10s 8s 7 9 mph 1015mb 43f
8:50pm 13ft 11s 9s 2 4 mph 1014.8mb 43f
7:50pm 11ft 13s 8s  -  4 mph 1014.7mb 43f
6:50pm 10ft 12s 8s 4 9 mph 1014.7mb 43f
5:50pm 9.5ft 9s 7s 7 11 mph 1014.9mb 42f
4:50pm 8ft 10s 6s 11 13 mph 1014.8mb 42f
3:50pm 8.5ft 8s 6s 13 16 mph 1015.2mb 41f
2:50pm 7ft 9s 6s 16 18 mph 1015.6mb 41f
1:50pm 8ft 9s 6s 18 20 mph 1015.9mb 41f
12:50pm 8ft 8s 6s 20 25 mph 1015.9mb 41f
11:50am 7.5ft 8s 5s 20 25 mph 1015.9mb 41f
10:50am 8ft 8s 5s 22 27 mph 1015.9mb 40f
9:50am 7ft 6s 5s 25 27 mph 1015.7mb 40f
8:50am 7ft 5s 5s 25 29 mph 1015.6mb 40f
7:50am 6.5ft 5s 5s 25 29 mph 1015.7mb 40f
6:50am 5.5ft 4s 5s 25 29 mph 1015.7mb 40f
5:50am 5ft 8s 5s 22 27 mph 1016mb 41f
4:50am 5ft 9s 5s 18 20 mph 1016.7mb 40f
3:50am 6ft 9s 5s 18 20 mph 1017.1mb 40f
2:50am 6ft 8s 5s 18 22 mph 1017.7mb 41f
1:50am 6ft 9s 6s 18 22 mph 1018.3mb 41f
12:50am 5.5ft 8s 5s 18 25 mph 1018.8mb 40f
Tue 04/21 11:50pm 6ft 9s 6s 16 20 mph 1019.1mb 40f
10:50pm 6ft 10s 6s 13 18 mph 1019.7mb 38f
9:50pm 6ft 10s 7s 11 13 mph 1019.9mb 40f
8:50pm 6ft 9s 7s 11 13 mph 1019.9mb 39f